• Join FlightAware (Why Join?)
  • Login
  • US Flag GB Flag 
08:31 EDT


 

Airport Tracker/Info


-or-


 

Live Flight TrackerFlight Track Log ✈ N173AA ✈ 22-Apr-2013 ✈ KANB - KHOU

Flight Track Log - Related Links

Times and Time Zones

All times are in EDT time to prevent confusion due to time zone crossing. See the N173AA flight status page for this flight to view local times or setup timezone preferences in your user account.

Time Position Orientation Groundspeed Altitude Reporting Facility
EDT Latitude Longitude Course Direction KTS MPH feet Rate Location/Type
12:42 33.6606 -85.9381 269° West 210 242 5,200  Level Atlanta Center
12:42 33.6478 -85.9528 224° Southwest 362 417 5,000 -180 Descending Atlanta Center
12:43 33.6053 -86.0042 225° Southwest 216 249 5,000 60 Level Atlanta Center
12:44 33.5811 -86.0761 248° West 222 255 5,200 900 Climbing Atlanta Center
12:45 33.5550 -86.1503 247° West 236 272 6,900 1,680 Climbing Atlanta Center
12:46 33.5306 -86.2244 248° West 246 283 8,600 1,740 Climbing Atlanta Center
12:47 33.5042 -86.3008 248° West 246 283 10,400 1,800 Climbing Atlanta Center
12:48 33.4778 -86.3800 248° West 246 283 12,300 1,560 Climbing Atlanta Center
12:49 33.4556 -86.4464 248° West 246 283 13,600 1,440 Climbing Atlanta Center
12:50 33.4311 -86.5206 248° West 246 283 15,200 1,560 Climbing Atlanta Center
12:51 33.4067 -86.5894 247° West 241 277 16,800 1,500 Climbing Atlanta Center
12:52 33.3844 -86.6586 249° West 233 268 18,200 1,320 Climbing Atlanta Center
12:53 33.3600 -86.7297 248° West 228 262 19,500 1,140 Climbing Atlanta Center
12:54 33.3353 -86.8036 248° West 235 270 20,500 1,020 Climbing Atlanta Center
12:55 33.3086 -86.8800 247° West 241 277 21,600 1,080 Climbing Atlanta Center
12:56 33.2836 -86.9661 251° West 247 284 22,700 1,080 Climbing Atlanta Center
12:57 33.2544 -87.0469 247° West 252 290 23,800 960 Climbing Atlanta Center
12:58 33.2319 -87.1158 249° West 252 290 24,700 600 Climbing Atlanta Center
12:59 33.2028 -87.1967 247° West 252 290 25,100 540 Climbing Atlanta Center
13:00 33.1733 -87.2825 248° West 265 305 25,800 840 Climbing Atlanta Center
13:01 33.1461 -87.3633 248° West 270 311 26,800 960 Climbing Atlanta Center
13:02 33.1186 -87.4517 250° West 270 311 27,800 900 Climbing Atlanta Center
13:03 33.0914 -87.5297 247° West 265 305 28,700 900 Climbing Atlanta Center
13:05 33.0456 -87.6633 248° West 254 292 30,500 780 Climbing Memphis Center
13:06 33.0200 -87.7336 247° West 242 278 31,100 480 Climbing Memphis Center
13:07 32.9922 -87.8061 245° Southwest 242 278 31,500 360 Climbing Memphis Center
13:08 32.9644 -87.8764 245° Southwest 242 278 31,900 240 Climbing Memphis Center
13:09 32.9411 -87.9686 253° West 249 287 32,000  Climbing Memphis Center
13:10 32.9133 -88.0461 247° West 255 293 32,000 -60 Level Memphis Center
13:11 32.8856 -88.1283 248° West 260 299 31,900  Descending Memphis Center
13:12 32.8581 -88.2106 248° West 260 299 32,000  Climbing Memphis Center
13:13 32.8300 -88.2953 249° West 270 311 32,000  Level Memphis Center
13:14 32.8022 -88.3800 249° West 277 319 32,000  Level Memphis Center
13:15 32.7722 -88.4647 247° West 277 319 32,000  Level Memphis Center
13:16 32.7403 -88.5519 246° West 277 319 32,000 -60 Level Memphis Center
13:17 32.7081 -88.6364 246° West 277 319 31,900  Descending Memphis Center
13:18 32.6758 -88.7233 246° West 282 325 32,000  Climbing Memphis Center
13:19 32.6456 -88.8103 248° West 282 325 32,000  Level Memphis Center
13:20 32.6153 -88.8947 247° West 282 325 32,000  Level Memphis Center
13:21 32.5828 -88.9842 247° West 282 325 32,000  Level Memphis Center
13:22 32.5544 -89.0708 249° West 287 330 32,000  Level Memphis Center
13:23 32.5242 -89.1575 248° West 292 336 32,000  Level Memphis Center
13:24 32.4917 -89.2464 247° West 292 336 32,000  Level Memphis Center
13:25 32.4589 -89.3306 245° Southwest 292 336 32,000  Level Memphis Center
13:26 32.4242 -89.4172 245° Southwest 297 342 32,000  Level Memphis Center
13:27 32.3933 -89.5086 248° West 297 342 32,000  Level Memphis Center
13:28 32.3606 -89.5975 246° West 297 342 32,000  Level Memphis Center
13:29 32.3297 -89.6836 247° West 297 342 32,000  Level Memphis Center
13:30 32.2989 -89.7750 248° West 297 342 32,000  Level Memphis Center
13:31 32.2681 -89.8611 247° West 297 342 32,000  Level Memphis Center
13:32 32.2350 -89.9497 246° West 297 342 32,000  Level Memphis Center
13:33 32.2017 -90.0381 246° West 297 342 32,000  Level Memphis Center
13:34 32.1686 -90.1267 246° West 297 342 32,000  Level Memphis Center
13:35 32.1353 -90.2125 245° Southwest 297 342 32,000  Level Memphis Center
13:36 32.1019 -90.3008 246° West 297 342 32,000  Level Memphis Center
13:37 32.0686 -90.3892 246° West 297 342 32,000  Level Memphis Center
13:38 32.0372 -90.4775 247° West 297 342 32,000  Level Memphis Center
13:40 31.9683 -90.6650 247° West 292 336 32,000  Level Houston Center
13:41 31.9347 -90.7531 246° West 294 338 32,000  Level Houston Center
13:42 31.8994 -90.8486 247° West 298 343 32,000  Level Houston Center
13:43 31.8656 -90.9356 245° Southwest 295 339 32,000  Level Houston Center
13:44 31.8303 -91.0244 245° Southwest 299 344 32,000  Level Houston Center
13:45 31.7969 -91.1125 246° West 298 343 32,000  Level Houston Center
13:46 31.7558 -91.2186 246° West 298 343 32,000  Level Houston Center
13:47 31.7236 -91.3072 247° West 296 341 32,000  Level Houston Center
13:49 31.6894 -91.3953 246° West 296 341 32,000  Level Houston Center
13:51 31.6217 -91.5719 246° West 296 341 32,000  Level Houston Center
13:52 31.5867 -91.6608 245° Southwest 299 344 32,000  Level Houston Center
13:53 31.5464 -91.7664 246° West 298 343 32,000  Level Houston Center
13:54 31.5103 -91.8536 244° Southwest 297 342 32,000  Level Houston Center
13:55 31.4725 -91.9411 243° Southwest 300 345 32,000  Level Houston Center
13:56 31.4336 -92.0367 245° Southwest 300 345 32,000  Level Houston Center
13:57 31.4006 -92.1258 247° West 300 345 32,000  Level Houston Center
13:58 31.3683 -92.2150 247° West 299 344 32,000  Level Houston Center
13:59 31.3350 -92.3050 247° West 302 348 32,000  Level Houston Center
14:00 31.3003 -92.3942 246° West 303 349 32,000  Level Houston Center
14:01 31.2550 -92.5014 244° Southwest 307 353 32,000  Level Houston Center
14:02 31.2214 -92.5914 246° West 304 350 32,000  Level Houston Center
14:03 31.1911 -92.6833 249° West 304 350 32,000  Level Houston Center
14:04 31.1578 -92.7750 247° West 305 351 32,000  Level Houston Center
14:05 31.1244 -92.8658 247° West 307 353 32,000  Level Houston Center
14:06 31.0836 -92.9750 246° West 307 353 32,000 -240 Level Houston Center
14:07 31.0486 -93.0667 246° West 310 357 31,600 -480 Descending Houston Center
14:08 31.0114 -93.1608 245° Southwest 319 367 31,100 -720 Descending Houston Center
14:09 30.9739 -93.2581 246° West 329 379 30,200 -840 Descending Houston Center
14:10 30.9369 -93.3586 247° West 338 389 29,400 -840 Descending Houston Center
14:11 30.8994 -93.4592 247° West 339 390 28,500 -1,140 Descending Houston Center
14:13 30.8701 -93.5625 252° West  Level FlightAware Approximate
14:13 30.8169 -93.6881 252° West 354 407 25,900  Level Houston Center
14:14 30.7783 -93.7928 247° West 355 409 24,700 -1,140 Descending Houston Center
14:15 30.7408 -93.8986 248° West 357 411 23,600 -1,200 Descending Houston Center
14:16 30.6956 -94.0217 247° West 350 403 22,300 -1,200 Descending Houston Center
14:18 30.6564 -94.1119 243° Southwest 321 369 21,200 -1,140 Descending Houston Center
14:18 30.6342 -94.1614 242° Southwest 309 356 20,600 -1,080 Descending Houston Center
14:19 30.6192 -94.2006 246° West 309 356 20,100 -1,080 Descending Houston Center
14:19 30.5986 -94.2461 242° Southwest 303 349 19,600 -1,020 Descending Houston Center
14:20 30.5831 -94.2892 247° West 306 352 19,100 -1,200 Descending Houston Center
14:20 30.5650 -94.3333 245° Southwest 304 350 18,400 -1,260 Descending Houston Center
14:21 30.5464 -94.3800 245° Southwest 312 359 17,800 -1,200 Descending Houston Center
14:21 30.5247 -94.4356 246° West 327 376 17,200 -1,200 Descending Houston Center
14:22 30.5119 -94.4764 250° West 322 371 16,600 -1,200 Descending Houston Center
14:22 30.4886 -94.5397 247° West 328 377 15,900 -1,200 Descending Houston Center
14:23 30.4694 -94.5753 238° Southwest 321 369 15,400 -1,320 Descending Houston Center
14:23 30.4378 -94.6217 232° Southwest 313 360 14,700 -1,260 Descending Houston Center
14:24 30.4125 -94.6592 232° Southwest 308 354 14,100 -960 Descending Houston Center
14:25 30.3603 -94.7336 231° Southwest 300 345 13,100 -720 Descending Houston Center
14:25 30.3322 -94.7683 227° Southwest 290 334 13,100 -120 Level Houston Center
14:26 30.3092 -94.8017 231° Southwest 284 327 13,000 -120 Descending Houston Center
14:26 30.2844 -94.8397 233° Southwest 273 314 13,000  Level Houston Center
14:27 30.2522 -94.8881 232° Southwest 280 322 13,000 -300 Level Houston Center
14:27 30.2328 -94.9164 232° Southwest 296 341 12,700 -900 Descending Houston Center
14:28 30.2006 -94.9656 233° Southwest 302 348 12,100 -1,200 Descending Houston Center
14:28 30.1775 -94.9983 231° Southwest 326 375 11,500 -1,200 Descending Houston Center
14:29 30.1453 -95.0489 234° Southwest 323 372 10,900 -1,080 Descending Houston Center
14:29 30.1225 -95.0825 232° Southwest 325 374 10,400 -660 Descending Houston Center
14:30 30.0261 -95.1306 203° Southwest 319 367 10,000 -180 Descending Houston Center
14:31 29.9906 -95.1428 197° South 318 366 10,100 -120 Climbing Houston Center
14:31 29.9525 -95.1542 195° South 303 349 9,900 -900 Descending Houston Center
14:32 29.8933 -95.1736 196° South 304 350 9,200 -1,020 Descending Houston Center
14:32 29.8692 -95.1814 196° South 299 344 8,900 -1,080 Descending Houston Center
14:33 29.8133 -95.2003 196° South 301 346 8,100 -1,140 Descending Houston Center
14:33 29.7897 -95.2103 200° South 298 343 7,800 -1,080 Descending Houston Center
14:34 29.7361 -95.2311 199° South 299 344 7,000 -1,260 Descending Houston Center
14:34 29.7022 -95.2400 193° South 270 311 6,400 -1,020 Descending Houston Center
14:35 29.6661 -95.2475 190° South 269 310 6,000 -780 Descending Houston Center
14:36 29.5953 -95.2669 193° South 229 264 5,100 -1,320 Descending Houston Center
14:37 29.5478 -95.3042 214° Southwest 231 266 3,300 -1,500 Descending Houston Center
14:38 29.5872 -95.3453 318° Northwest 214 246 2,000 -1,260 Descending Houston Center
14:39 29.6186 -95.3083 46° Northeast 176 203 800 -960 Descending Houston Center
14:40 29.6450 -95.2772 46° Northeast 150 173 100 -720 Descending Houston Center